Terminal Aerodrome Forecast
Issued by NWS

Home | Current Version | Previous Version | Graphics & Text | Print | Product List | Glossary On
Versions: 1 2 3 4 5 6 7 8 9 10 11 12 13 14 15
353
FTUS43 KLSX 122320
TAFSUS
TAF
KSUS 122320Z 1300/1324 28004KT P6SM FEW200
     FM130600 22004KT P6SM SKC
     FM131200 20007KT P6SM FEW080 WS012/24035KT
     FM131400 23013G25KT P6SM FEW110 WS012/24045KT
     FM131700 25016G28KT P6SM SCT250
     FM132100 29015G26KT P6SM SCT090=

USA.gov is the U.S. government's official web portal to all federal, state and local government web resources and services.